sensor_id;sensor_type;location;lat;lon;timestamp;pressure;altitude;pressure_sealevel;temperature;humidity
6198;BME280;3132;42.622;23.328;2024-03-22T00:00:19;92811.06;;;6.58;53.24
6198;BME280;3132;42.622;23.328;2024-03-22T00:02:44;92812.56;;;6.54;53.65
6198;BME280;3132;42.622;23.328;2024-03-22T00:05:09;92803.16;;;6.43;54.32
6198;BME280;3132;42.622;23.328;2024-03-22T00:07:35;92800.00;;;6.36;54.57
6198;BME280;3132;42.622;23.328;2024-03-22T00:10:02;92804.09;;;6.32;54.02
6198;BME280;3132;42.622;23.328;2024-03-22T00:12:27;92799.97;;;6.31;54.58
6198;BME280;3132;42.622;23.328;2024-03-22T00:14:52;92811.88;;;6.32;54.58
6198;BME280;3132;42.622;23.328;2024-03-22T00:17:20;92809.03;;;6.28;54.88
6198;BME280;3132;42.622;23.328;2024-03-22T00:19:45;92796.31;;;6.27;55.05
6198;BME280;3132;42.622;23.328;2024-03-22T00:22:10;92750.97;;;5.98;54.49
6198;BME280;3132;42.622;23.328;2024-03-22T00:24:36;92790.34;;;6.26;54.22
6198;BME280;3132;42.622;23.328;2024-03-22T00:27:01;92804.09;;;6.27;54.89
6198;BME280;3132;42.622;23.328;2024-03-22T00:29:26;92787.41;;;6.18;55.17
6198;BME280;3132;42.622;23.328;2024-03-22T00:31:52;92795.19;;;6.18;55.02
6198;BME280;3132;42.622;23.328;2024-03-22T00:34:17;92798.16;;;6.00;57.15
6198;BME280;3132;42.622;23.328;2024-03-22T00:36:43;92804.38;;;6.04;57.77
6198;BME280;3132;42.622;23.328;2024-03-22T00:39:08;92816.22;;;5.95;59.24
6198;BME280;3132;42.622;23.328;2024-03-22T00:41:33;92822.22;;;6.27;58.77
6198;BME280;3132;42.622;23.328;2024-03-22T00:43:59;92795.66;;;5.83;59.97
6198;BME280;3132;42.622;23.328;2024-03-22T00:46:24;92815.03;;;5.81;61.23
6198;BME280;3132;42.622;23.328;2024-03-22T00:48:49;92804.47;;;5.61;61.30
6198;BME280;3132;42.622;23.328;2024-03-22T00:51:15;92812.78;;;5.63;61.89
6198;BME280;3132;42.622;23.328;2024-03-22T00:53:40;92813.03;;;5.40;62.37
6198;BME280;3132;42.622;23.328;2024-03-22T00:56:06;92818.97;;;5.40;62.80
6198;BME280;3132;42.622;23.328;2024-03-22T00:58:31;92808.84;;;5.34;62.47
6198;BME280;3132;42.622;23.328;2024-03-22T01:00:56;92799.50;;;5.33;61.12
6198;BME280;3132;42.622;23.328;2024-03-22T01:03:22;92821.22;;;5.53;62.33
6198;BME280;3132;42.622;23.328;2024-03-22T01:05:47;92769.31;;;5.17;62.85
6198;BME280;3132;42.622;23.328;2024-03-22T01:08:13;92790.09;;;5.27;63.07
6198;BME280;3132;42.622;23.328;2024-03-22T01:10:38;92773.97;;;4.98;62.44
6198;BME280;3132;42.622;23.328;2024-03-22T01:13:04;92821.28;;;5.37;60.39
6198;BME280;3132;42.622;23.328;2024-03-22T01:15:29;92816.22;;;5.47;59.88
6198;BME280;3132;42.622;23.328;2024-03-22T01:17:55;92805.81;;;5.42;59.10
6198;BME280;3132;42.622;23.328;2024-03-22T01:20:20;92809.56;;;5.51;58.51
6198;BME280;3132;42.622;23.328;2024-03-22T01:22:45;92823.31;;;5.56;58.63
6198;BME280;3132;42.622;23.328;2024-03-22T01:25:11;92821.47;;;5.52;59.09
6198;BME280;3132;42.622;23.328;2024-03-22T01:27:36;92800.63;;;5.42;59.15
6198;BME280;3132;42.622;23.328;2024-03-22T01:30:02;92824.88;;;5.57;58.53
6198;BME280;3132;42.622;23.328;2024-03-22T01:32:27;92801.53;;;5.52;58.11
6198;BME280;3132;42.622;23.328;2024-03-22T01:34:53;92828.00;;;5.59;58.47
6198;BME280;3132;42.622;23.328;2024-03-22T01:37:18;92804.72;;;5.38;58.37
6198;BME280;3132;42.622;23.328;2024-03-22T01:39:43;92755.09;;;5.19;57.80
6198;BME280;3132;42.622;23.328;2024-03-22T01:42:09;92820.00;;;5.61;58.25
6198;BME280;3132;42.622;23.328;2024-03-22T01:44:34;92791.47;;;5.56;58.17
6198;BME280;3132;42.622;23.328;2024-03-22T01:47:00;92780.41;;;5.39;57.73
6198;BME280;3132;42.622;23.328;2024-03-22T01:49:26;92803.97;;;5.64;57.92
6198;BME280;3132;42.622;23.328;2024-03-22T01:51:52;92817.59;;;5.76;57.96
6198;BME280;3132;42.622;23.328;2024-03-22T01:54:19;92822.94;;;5.69;58.66
6198;BME280;3132;42.622;23.328;2024-03-22T01:56:45;92791.31;;;5.41;59.35
6198;BME280;3132;42.622;23.328;2024-03-22T01:59:12;92806.50;;;5.59;58.07
6198;BME280;3132;42.622;23.328;2024-03-22T02:01:37;92816.19;;;5.68;58.84
6198;BME280;3132;42.622;23.328;2024-03-22T02:04:03;92813.34;;;5.70;57.92
6198;BME280;3132;42.622;23.328;2024-03-22T02:06:28;92797.13;;;5.53;58.97
6198;BME280;3132;42.622;23.328;2024-03-22T02:08:54;92808.66;;;5.67;58.37
6198;BME280;3132;42.622;23.328;2024-03-22T02:11:20;92808.41;;;5.68;58.17
6198;BME280;3132;42.622;23.328;2024-03-22T02:13:46;92802.91;;;5.60;58.87
6198;BME280;3132;42.622;23.328;2024-03-22T02:16:12;92811.69;;;5.59;59.49
6198;BME280;3132;42.622;23.328;2024-03-22T02:18:37;92801.63;;;5.62;60.60
6198;BME280;3132;42.622;23.328;2024-03-22T02:21:02;92811.16;;;5.57;62.05
6198;BME280;3132;42.622;23.328;2024-03-22T02:23:34;92807.25;;;5.33;60.82
6198;BME280;3132;42.622;23.328;2024-03-22T02:26:01;92814.97;;;5.49;61.43
6198;BME280;3132;42.622;23.328;2024-03-22T02:28:27;92809.41;;;5.41;62.05
6198;BME280;3132;42.622;23.328;2024-03-22T02:30:52;92795.91;;;5.34;61.73
6198;BME280;3132;42.622;23.328;2024-03-22T02:33:18;92793.78;;;5.31;61.38
6198;BME280;3132;42.622;23.328;2024-03-22T02:35:45;92791.88;;;5.21;61.96
6198;BME280;3132;42.622;23.328;2024-03-22T02:38:11;92825.69;;;5.36;62.40
6198;BME280;3132;42.622;23.328;2024-03-22T02:40:36;92817.25;;;5.24;61.73
6198;BME280;3132;42.622;23.328;2024-03-22T02:43:02;92801.66;;;5.19;62.23
6198;BME280;3132;42.622;23.328;2024-03-22T02:45:27;92809.31;;;5.31;61.89
6198;BME280;3132;42.622;23.328;2024-03-22T02:47:52;92819.19;;;5.34;61.96
6198;BME280;3132;42.622;23.328;2024-03-22T02:50:18;92823.28;;;5.30;62.18
6198;BME280;3132;42.622;23.328;2024-03-22T02:52:43;92822.19;;;5.26;63.34
6198;BME280;3132;42.622;23.328;2024-03-22T02:55:08;92822.84;;;5.16;63.29
6198;BME280;3132;42.622;23.328;2024-03-22T02:57:34;92805.72;;;4.93;64.24
6198;BME280;3132;42.622;23.328;2024-03-22T03:00:02;92833.84;;;5.07;65.03
6198;BME280;3132;42.622;23.328;2024-03-22T03:02:28;92829.09;;;4.98;65.10
6198;BME280;3132;42.622;23.328;2024-03-22T03:04:54;92831.34;;;4.95;65.96
6198;BME280;3132;42.622;23.328;2024-03-22T03:07:19;92814.34;;;4.77;67.35
6198;BME280;3132;42.622;23.328;2024-03-22T03:09:44;92836.53;;;4.95;67.16
6198;BME280;3132;42.622;23.328;2024-03-22T03:12:10;92827.94;;;4.89;65.99
6198;BME280;3132;42.622;23.328;2024-03-22T03:14:35;92838.03;;;4.91;65.76
6198;BME280;3132;42.622;23.328;2024-03-22T03:17:00;92819.91;;;4.69;66.74
6198;BME280;3132;42.622;23.328;2024-03-22T03:19:26;92840.03;;;4.84;66.65
6198;BME280;3132;42.622;23.328;2024-03-22T03:21:51;92838.44;;;4.83;66.89
6198;BME280;3132;42.622;23.328;2024-03-22T03:24:16;92840.91;;;4.73;67.05
6198;BME280;3132;42.622;23.328;2024-03-22T03:26:41;92843.03;;;4.76;66.64
6198;BME280;3132;42.622;23.328;2024-03-22T03:29:08;92841.16;;;4.71;67.05
6198;BME280;3132;42.622;23.328;2024-03-22T03:31:33;92838.16;;;4.63;67.39
6198;BME280;3132;42.622;23.328;2024-03-22T03:33:58;92840.91;;;4.56;67.03
6198;BME280;3132;42.622;23.328;2024-03-22T03:36:24;92847.31;;;4.70;67.29
6198;BME280;3132;42.622;23.328;2024-03-22T03:38:49;92844.50;;;4.72;67.13
6198;BME280;3132;42.622;23.328;2024-03-22T03:41:14;92843.66;;;4.66;68.03
6198;BME280;3132;42.622;23.328;2024-03-22T03:43:40;92837.72;;;4.49;69.83
6198;BME280;3132;42.622;23.328;2024-03-22T03:46:05;92837.47;;;4.51;68.87
6198;BME280;3132;42.622;23.328;2024-03-22T03:48:30;92837.06;;;4.59;68.04
6198;BME280;3132;42.622;23.328;2024-03-22T03:50:56;92854.06;;;4.55;67.42
6198;BME280;3132;42.622;23.328;2024-03-22T03:53:24;92838.66;;;4.43;69.27
6198;BME280;3132;42.622;23.328;2024-03-22T03:55:50;92860.09;;;4.44;70.64
6198;BME280;3132;42.622;23.328;2024-03-22T03:58:15;92850.94;;;4.36;70.92
6198;BME280;3132;42.622;23.328;2024-03-22T04:00:43;92860.72;;;4.34;71.66
6198;BME280;3132;42.622;23.328;2024-03-22T04:03:08;92863.47;;;4.44;69.88
6198;BME280;3132;42.622;23.328;2024-03-22T04:05:34;92840.66;;;4.08;71.05
6198;BME280;3132;42.622;23.328;2024-03-22T04:07:59;92845.91;;;4.13;72.21
6198;BME280;3132;42.622;23.328;2024-03-22T04:10:25;92863.53;;;4.16;72.50
6198;BME280;3132;42.622;23.328;2024-03-22T04:12:50;92870.66;;;4.09;72.94
6198;BME280;3132;42.622;23.328;2024-03-22T04:15:15;92868.22;;;4.03;73.94
6198;BME280;3132;42.622;23.328;2024-03-22T04:17:41;92861.16;;;3.98;75.00
6198;BME280;3132;42.622;23.328;2024-03-22T04:20:06;92859.19;;;3.89;75.10
6198;BME280;3132;42.622;23.328;2024-03-22T04:22:33;92858.50;;;3.93;75.48
6198;BME280;3132;42.622;23.328;2024-03-22T04:24:59;92867.47;;;3.91;74.24
6198;BME280;3132;42.622;23.328;2024-03-22T04:27:24;92847.28;;;3.88;73.10
6198;BME280;3132;42.622;23.328;2024-03-22T04:29:49;92877.97;;;4.01;73.52
6198;BME280;3132;42.622;23.328;2024-03-22T04:32:15;92864.50;;;3.82;74.35
6198;BME280;3132;42.622;23.328;2024-03-22T04:34:43;92874.59;;;4.00;75.01
6198;BME280;3132;42.622;23.328;2024-03-22T04:37:08;92862.63;;;3.94;74.70
6198;BME280;3132;42.622;23.328;2024-03-22T04:39:37;92885.00;;;4.17;74.32
6198;BME280;3132;42.622;23.328;2024-03-22T04:42:03;92879.88;;;4.22;74.07
6198;BME280;3132;42.622;23.328;2024-03-22T04:44:29;92885.31;;;4.53;74.63
6198;BME280;3132;42.622;23.328;2024-03-22T04:46:54;92873.41;;;4.19;75.03
6198;BME280;3132;42.622;23.328;2024-03-22T04:49:20;92895.25;;;4.28;74.93
6198;BME280;3132;42.622;23.328;2024-03-22T04:51:45;92873.16;;;4.37;72.59
6198;BME280;3132;42.622;23.328;2024-03-22T04:54:11;92902.09;;;4.67;72.50
6198;BME280;3132;42.622;23.328;2024-03-22T04:56:36;92891.13;;;4.60;72.25
6198;BME280;3132;42.622;23.328;2024-03-22T04:59:02;92890.75;;;4.68;71.87
6198;BME280;3132;42.622;23.328;2024-03-22T05:01:27;92899.72;;;4.82;71.81
6198;BME280;3132;42.622;23.328;2024-03-22T05:03:52;92883.53;;;4.87;71.55
6198;BME280;3132;42.622;23.328;2024-03-22T05:06:18;92901.75;;;5.14;71.28
6198;BME280;3132;42.622;23.328;2024-03-22T05:08:44;92904.88;;;5.16;70.96
6198;BME280;3132;42.622;23.328;2024-03-22T05:11:09;92897.19;;;5.21;70.92
6198;BME280;3132;42.622;23.328;2024-03-22T05:13:34;92899.91;;;5.31;71.06
6198;BME280;3132;42.622;23.328;2024-03-22T05:16:00;92900.44;;;5.33;71.25
6198;BME280;3132;42.622;23.328;2024-03-22T05:18:25;92914.06;;;5.45;71.79
6198;BME280;3132;42.622;23.328;2024-03-22T05:20:50;92918.16;;;5.62;71.34
6198;BME280;3132;42.622;23.328;2024-03-22T05:23:16;92898.00;;;5.64;70.87
6198;BME280;3132;42.622;23.328;2024-03-22T05:25:42;92898.88;;;5.75;70.66
6198;BME280;3132;42.622;23.328;2024-03-22T05:28:08;92927.69;;;6.00;69.21
6198;BME280;3132;42.622;23.328;2024-03-22T05:30:33;92895.06;;;5.99;67.63
6198;BME280;3132;42.622;23.328;2024-03-22T05:32:58;92915.50;;;6.22;66.94
6198;BME280;3132;42.622;23.328;2024-03-22T05:35:24;92920.75;;;6.53;71.14
6198;BME280;3132;42.622;23.328;2024-03-22T05:37:50;92926.31;;;6.67;68.24
6198;BME280;3132;42.622;23.328;2024-03-22T05:40:16;92928.00;;;6.83;64.48
6198;BME280;3132;42.622;23.328;2024-03-22T05:42:42;92923.81;;;6.82;64.06
6198;BME280;3132;42.622;23.328;2024-03-22T05:45:07;92931.75;;;7.02;61.62
6198;BME280;3132;42.622;23.328;2024-03-22T05:47:33;92940.22;;;7.24;59.49
6198;BME280;3132;42.622;23.328;2024-03-22T05:49:59;92931.38;;;7.20;58.16
6198;BME280;3132;42.622;23.328;2024-03-22T05:52:25;92945.75;;;7.38;57.24
6198;BME280;3132;42.622;23.328;2024-03-22T05:54:50;92929.84;;;7.24;60.17
6198;BME280;3132;42.622;23.328;2024-03-22T05:57:16;92946.50;;;7.28;60.54
6198;BME280;3132;42.622;23.328;2024-03-22T05:59:42;92945.41;;;7.24;60.39
6198;BME280;3132;42.622;23.328;2024-03-22T06:02:07;92949.41;;;7.00;63.75
6198;BME280;3132;42.622;23.328;2024-03-22T06:04:33;92956.06;;;6.91;64.42
6198;BME280;3132;42.622;23.328;2024-03-22T06:07:00;92954.53;;;6.64;65.89
6198;BME280;3132;42.622;23.328;2024-03-22T06:09:26;92961.63;;;6.73;65.48
6198;BME280;3132;42.622;23.328;2024-03-22T06:12:14;92950.41;;;6.99;64.71
6198;BME280;3132;42.622;23.328;2024-03-22T06:14:41;92948.78;;;6.88;64.44
6198;BME280;3132;42.622;23.328;2024-03-22T06:17:06;92951.25;;;7.05;64.06
6198;BME280;3132;42.622;23.328;2024-03-22T06:19:31;92961.84;;;7.30;62.51
6198;BME280;3132;42.622;23.328;2024-03-22T06:21:57;92940.63;;;7.06;62.29
6198;BME280;3132;42.622;23.328;2024-03-22T06:24:22;92956.00;;;7.54;60.65
6198;BME280;3132;42.622;23.328;2024-03-22T06:26:47;92955.31;;;7.74;58.02
6198;BME280;3132;42.622;23.328;2024-03-22T06:29:15;92946.66;;;7.58;57.43
6198;BME280;3132;42.622;23.328;2024-03-22T06:31:41;92958.78;;;7.89;57.00
6198;BME280;3132;42.622;23.328;2024-03-22T06:34:07;92941.59;;;7.83;56.32
6198;BME280;3132;42.622;23.328;2024-03-22T06:36:32;92927.78;;;7.73;55.34
6198;BME280;3132;42.622;23.328;2024-03-22T06:38:58;92947.28;;;7.70;56.41
6198;BME280;3132;42.622;23.328;2024-03-22T06:41:24;92964.31;;;7.51;58.47
6198;BME280;3132;42.622;23.328;2024-03-22T06:43:51;92964.47;;;7.86;59.45
6198;BME280;3132;42.622;23.328;2024-03-22T06:46:16;92963.56;;;8.17;53.92
6198;BME280;3132;42.622;23.328;2024-03-22T06:48:42;92961.03;;;8.23;52.75
6198;BME280;3132;42.622;23.328;2024-03-22T06:51:07;92967.25;;;8.22;53.61
6198;BME280;3132;42.622;23.328;2024-03-22T06:53:33;92975.03;;;8.16;53.87
6198;BME280;3132;42.622;23.328;2024-03-22T06:55:58;92954.84;;;8.44;52.67
6198;BME280;3132;42.622;23.328;2024-03-22T06:58:23;92970.47;;;8.54;52.37
6198;BME280;3132;42.622;23.328;2024-03-22T07:00:49;92958.78;;;8.56;52.59
6198;BME280;3132;42.622;23.328;2024-03-22T07:03:14;92996.06;;;8.87;52.41
6198;BME280;3132;42.622;23.328;2024-03-22T07:05:39;92987.22;;;8.98;52.50
6198;BME280;3132;42.622;23.328;2024-03-22T07:08:05;92973.94;;;8.94;50.43
6198;BME280;3132;42.622;23.328;2024-03-22T07:10:30;92991.13;;;8.95;50.63
6198;BME280;3132;42.622;23.328;2024-03-22T07:12:57;92986.72;;;9.01;49.76
6198;BME280;3132;42.622;23.328;2024-03-22T07:15:23;92970.44;;;8.44;52.76
6198;BME280;3132;42.622;23.328;2024-03-22T07:17:49;92998.16;;;8.95;52.39
6198;BME280;3132;42.622;23.328;2024-03-22T07:20:15;92972.13;;;9.15;50.16
6198;BME280;3132;42.622;23.328;2024-03-22T07:22:41;93005.47;;;9.68;48.77
6198;BME280;3132;42.622;23.328;2024-03-22T07:25:06;93009.38;;;9.45;48.63
6198;BME280;3132;42.622;23.328;2024-03-22T07:27:32;92965.34;;;9.39;47.39
6198;BME280;3132;42.622;23.328;2024-03-22T07:29:57;92969.75;;;9.43;48.59
6198;BME280;3132;42.622;23.328;2024-03-22T07:32:22;93002.28;;;9.81;47.86
6198;BME280;3132;42.622;23.328;2024-03-22T07:34:48;93004.38;;;9.89;47.36
6198;BME280;3132;42.622;23.328;2024-03-22T07:37:13;92992.94;;;9.45;47.39
6198;BME280;3132;42.622;23.328;2024-03-22T07:39:39;92994.78;;;9.59;48.24
6198;BME280;3132;42.622;23.328;2024-03-22T07:42:04;92985.66;;;9.57;48.37
6198;BME280;3132;42.622;23.328;2024-03-22T07:44:30;93008.31;;;9.76;47.10
6198;BME280;3132;42.622;23.328;2024-03-22T07:46:55;93014.28;;;9.92;47.26
6198;BME280;3132;42.622;23.328;2024-03-22T07:49:20;92980.94;;;9.74;47.08
6198;BME280;3132;42.622;23.328;2024-03-22T07:51:46;92982.22;;;9.71;48.08
6198;BME280;3132;42.622;23.328;2024-03-22T07:54:11;93012.19;;;9.94;48.59
6198;BME280;3132;42.622;23.328;2024-03-22T07:56:37;93016.88;;;10.07;47.34
6198;BME280;3132;42.622;23.328;2024-03-22T07:59:02;93010.03;;;10.26;47.34
6198;BME280;3132;42.622;23.328;2024-03-22T08:01:27;93006.63;;;10.31;46.95
6198;BME280;3132;42.622;23.328;2024-03-22T08:03:53;92988.97;;;9.98;47.43
6198;BME280;3132;42.622;23.328;2024-03-22T08:06:18;93017.31;;;10.34;46.76
6198;BME280;3132;42.622;23.328;2024-03-22T08:08:44;93015.97;;;10.47;46.04
6198;BME280;3132;42.622;23.328;2024-03-22T08:11:09;93023.53;;;10.48;46.72
6198;BME280;3132;42.622;23.328;2024-03-22T08:13:35;93012.44;;;10.18;46.90
6198;BME280;3132;42.622;23.328;2024-03-22T08:16:01;93021.47;;;10.35;46.51
6198;BME280;3132;42.622;23.328;2024-03-22T08:18:26;93020.47;;;10.31;46.16
6198;BME280;3132;42.622;23.328;2024-03-22T08:20:52;92961.84;;;9.89;47.12
6198;BME280;3132;42.622;23.328;2024-03-22T08:23:17;93011.13;;;9.90;47.41
6198;BME280;3132;42.622;23.328;2024-03-22T08:25:48;92996.59;;;9.44;50.04
6198;BME280;3132;42.622;23.328;2024-03-22T08:28:13;92973.91;;;9.49;50.22
6198;BME280;3132;42.622;23.328;2024-03-22T08:30:39;92998.03;;;10.30;47.88
6198;BME280;3132;42.622;23.328;2024-03-22T08:33:04;93015.34;;;10.65;46.22
6198;BME280;3132;42.622;23.328;2024-03-22T08:35:30;93000.06;;;10.43;47.04
6198;BME280;3132;42.622;23.328;2024-03-22T08:37:56;92993.97;;;10.63;44.74
6198;BME280;3132;42.622;23.328;2024-03-22T08:40:21;92987.47;;;10.55;44.21
6198;BME280;3132;42.622;23.328;2024-03-22T08:42:47;93021.97;;;10.47;46.25
6198;BME280;3132;42.622;23.328;2024-03-22T08:45:12;93011.38;;;10.14;45.37
6198;BME280;3132;42.622;23.328;2024-03-22T08:47:37;93013.78;;;9.75;46.90
6198;BME280;3132;42.622;23.328;2024-03-22T08:50:06;93012.44;;;10.18;45.50
6198;BME280;3132;42.622;23.328;2024-03-22T08:52:31;93008.53;;;9.95;46.53
6198;BME280;3132;42.622;23.328;2024-03-22T08:54:59;92988.78;;;9.69;47.65
6198;BME280;3132;42.622;23.328;2024-03-22T08:57:24;93002.06;;;9.62;46.10
6198;BME280;3132;42.622;23.328;2024-03-22T08:59:50;92997.56;;;10.03;46.62
6198;BME280;3132;42.622;23.328;2024-03-22T09:02:15;93008.75;;;10.14;45.26
6198;BME280;3132;42.622;23.328;2024-03-22T09:04:41;93020.34;;;10.61;43.18
6198;BME280;3132;42.622;23.328;2024-03-22T09:07:07;93018.94;;;10.79;42.60
6198;BME280;3132;42.622;23.328;2024-03-22T09:09:32;93015.25;;;10.26;44.43
6198;BME280;3132;42.622;23.328;2024-03-22T09:11:58;93010.94;;;10.60;42.65
6198;BME280;3132;42.622;23.328;2024-03-22T09:14:23;92985.72;;;10.41;42.47
6198;BME280;3132;42.622;23.328;2024-03-22T09:16:48;93015.41;;;10.55;42.83
6198;BME280;3132;42.622;23.328;2024-03-22T09:19:13;92996.50;;;10.19;46.68
6198;BME280;3132;42.622;23.328;2024-03-22T09:21:39;92992.69;;;10.55;44.36
6198;BME280;3132;42.622;23.328;2024-03-22T09:24:04;92996.78;;;10.76;43.27
6198;BME280;3132;42.622;23.328;2024-03-22T09:26:31;92993.63;;;10.79;42.14
6198;BME280;3132;42.622;23.328;2024-03-22T09:28:57;92987.16;;;10.67;42.84
6198;BME280;3132;42.622;23.328;2024-03-22T09:31:22;92988.84;;;10.86;41.69
6198;BME280;3132;42.622;23.328;2024-03-22T09:33:48;93001.97;;;10.81;43.22
6198;BME280;3132;42.622;23.328;2024-03-22T09:36:13;92967.34;;;9.92;43.95
6198;BME280;3132;42.622;23.328;2024-03-22T09:38:38;92993.88;;;10.78;42.50
6198;BME280;3132;42.622;23.328;2024-03-22T09:41:04;92980.31;;;10.76;42.38
6198;BME280;3132;42.622;23.328;2024-03-22T09:43:30;92984.81;;;10.65;43.37
6198;BME280;3132;42.622;23.328;2024-03-22T09:45:57;92992.34;;;10.72;44.93
6198;BME280;3132;42.622;23.328;2024-03-22T09:48:23;92969.94;;;11.04;43.45
6198;BME280;3132;42.622;23.328;2024-03-22T09:50:49;92966.91;;;11.26;42.97
6198;BME280;3132;42.622;23.328;2024-03-22T09:53:19;92972.34;;;11.34;41.08
6198;BME280;3132;42.622;23.328;2024-03-22T09:55:47;92975.81;;;11.25;40.98
6198;BME280;3132;42.622;23.328;2024-03-22T09:58:12;92971.09;;;11.56;40.97
6198;BME280;3132;42.622;23.328;2024-03-22T10:00:38;92987.47;;;11.38;40.90
6198;BME280;3132;42.622;23.328;2024-03-22T10:03:04;92973.28;;;11.49;40.31
6198;BME280;3132;42.622;23.328;2024-03-22T10:05:30;92945.97;;;11.60;40.22
6198;BME280;3132;42.622;23.328;2024-03-22T10:07:56;92985.69;;;11.62;38.68
6198;BME280;3132;42.622;23.328;2024-03-22T10:10:21;92958.66;;;11.43;38.86
6198;BME280;3132;42.622;23.328;2024-03-22T10:12:48;92983.03;;;11.72;39.40
6198;BME280;3132;42.622;23.328;2024-03-22T10:15:13;92973.59;;;11.71;39.18
6198;BME280;3132;42.622;23.328;2024-03-22T10:17:39;92983.66;;;11.54;38.73
6198;BME280;3132;42.622;23.328;2024-03-22T10:20:06;92973.47;;;11.23;42.84
6198;BME280;3132;42.622;23.328;2024-03-22T10:23:03;92985.97;;;11.60;40.52
6198;BME280;3132;42.622;23.328;2024-03-22T10:25:28;92981.53;;;11.66;38.69
6198;BME280;3132;42.622;23.328;2024-03-22T10:27:54;92983.53;;;11.40;42.68
6198;BME280;3132;42.622;23.328;2024-03-22T10:30:21;92963.97;;;11.38;41.00
6198;BME280;3132;42.622;23.328;2024-03-22T10:32:48;92974.16;;;11.34;40.36
6198;BME280;3132;42.622;23.328;2024-03-22T10:35:14;92973.28;;;11.49;39.85
6198;BME280;3132;42.622;23.328;2024-03-22T10:37:40;92953.53;;;11.32;41.96
6198;BME280;3132;42.622;23.328;2024-03-22T10:40:07;92960.41;;;11.52;41.06
6198;BME280;3132;42.622;23.328;2024-03-22T10:42:37;92961.31;;;11.71;40.51
6198;BME280;3132;42.622;23.328;2024-03-22T10:45:03;92941.47;;;11.94;39.96
6198;BME280;3132;42.622;23.328;2024-03-22T10:47:30;92942.84;;;12.10;38.87
6198;BME280;3132;42.622;23.328;2024-03-22T10:50:08;92955.66;;;12.35;38.12
6198;BME280;3132;42.622;23.328;2024-03-22T10:52:50;92952.75;;;12.36;37.77
6198;BME280;3132;42.622;23.328;2024-03-22T10:57:48;92917.75;;;12.09;40.90
6198;BME280;3132;42.622;23.328;2024-03-22T11:00:14;92923.94;;;12.36;40.77
6198;BME280;3132;42.622;23.328;2024-03-22T11:02:43;92918.97;;;12.77;38.13
6198;BME280;3132;42.622;23.328;2024-03-22T11:05:16;92916.50;;;13.04;37.48
6198;BME280;3132;42.622;23.328;2024-03-22T11:07:43;92933.06;;;13.00;38.43
6198;BME280;3132;42.622;23.328;2024-03-22T11:10:11;92936.22;;;12.78;37.01
6198;BME280;3132;42.622;23.328;2024-03-22T11:12:37;92919.19;;;12.80;37.49
6198;BME280;3132;42.622;23.328;2024-03-22T11:15:03;92910.50;;;12.24;39.47
6198;BME280;3132;42.622;23.328;2024-03-22T11:17:28;92908.91;;;11.81;39.38
6198;BME280;3132;42.622;23.328;2024-03-22T11:19:54;92925.66;;;12.04;39.11
6198;BME280;3132;42.622;23.328;2024-03-22T11:22:19;92920.66;;;12.07;39.52
6198;BME280;3132;42.622;23.328;2024-03-22T11:24:45;92923.63;;;12.43;39.13
6198;BME280;3132;42.622;23.328;2024-03-22T11:27:11;92892.53;;;12.55;38.31
6198;BME280;3132;42.622;23.328;2024-03-22T11:29:39;92914.78;;;12.57;38.73
6198;BME280;3132;42.622;23.328;2024-03-22T11:32:07;92904.94;;;12.31;41.51
6198;BME280;3132;42.622;23.328;2024-03-22T11:34:36;92914.91;;;13.22;37.37
6198;BME280;3132;42.622;23.328;2024-03-22T11:37:02;92919.84;;;13.23;37.07
6198;BME280;3132;42.622;23.328;2024-03-22T11:39:28;92906.97;;;12.89;36.74
6198;BME280;3132;42.622;23.328;2024-03-22T11:41:53;92885.41;;;12.42;38.20
6198;BME280;3132;42.622;23.328;2024-03-22T11:44:19;92874.22;;;11.94;37.54
6198;BME280;3132;42.622;23.328;2024-03-22T11:46:45;92906.22;;;12.10;37.62
6198;BME280;3132;42.622;23.328;2024-03-22T11:49:11;92880.81;;;11.92;38.09
6198;BME280;3132;42.622;23.328;2024-03-22T11:51:36;92889.69;;;11.91;38.36
6198;BME280;3132;42.622;23.328;2024-03-22T11:54:03;92882.09;;;12.13;38.07
6198;BME280;3132;42.622;23.328;2024-03-22T11:56:28;92876.69;;;11.86;37.40
6198;BME280;3132;42.622;23.328;2024-03-22T11:58:59;92893.34;;;12.13;37.79
6198;BME280;3132;42.622;23.328;2024-03-22T12:01:26;92875.97;;;11.52;38.58
6198;BME280;3132;42.622;23.328;2024-03-22T12:03:51;92885.00;;;11.88;38.50
6198;BME280;3132;42.622;23.328;2024-03-22T12:06:17;92869.25;;;12.35;37.87
6198;BME280;3132;42.622;23.328;2024-03-22T12:08:42;92878.31;;;12.24;38.72
6198;BME280;3132;42.622;23.328;2024-03-22T12:11:08;92858.75;;;11.98;39.46
6198;BME280;3132;42.622;23.328;2024-03-22T12:13:34;92866.19;;;12.09;38.99
6198;BME280;3132;42.622;23.328;2024-03-22T12:16:00;92856.41;;;11.96;38.63
6198;BME280;3132;42.622;23.328;2024-03-22T12:18:26;92824.50;;;11.94;38.11
6198;BME280;3132;42.622;23.328;2024-03-22T12:20:51;92867.16;;;12.55;36.98
6198;BME280;3132;42.622;23.328;2024-03-22T12:23:17;92848.53;;;12.20;38.73
6198;BME280;3132;42.622;23.328;2024-03-22T12:25:42;92857.00;;;12.49;38.07
6198;BME280;3132;42.622;23.328;2024-03-22T12:28:07;92858.56;;;13.06;37.21
6198;BME280;3132;42.622;23.328;2024-03-22T12:30:33;92859.41;;;13.47;36.06
6198;BME280;3132;42.622;23.328;2024-03-22T12:32:58;92827.06;;;13.51;35.10
6198;BME280;3132;42.622;23.328;2024-03-22T12:35:24;92850.78;;;13.60;34.86
6198;BME280;3132;42.622;23.328;2024-03-22T12:37:50;92841.94;;;13.69;36.02
6198;BME280;3132;42.622;23.328;2024-03-22T12:40:16;92839.50;;;13.73;35.24
6198;BME280;3132;42.622;23.328;2024-03-22T12:42:41;92835.84;;;13.15;36.59
6198;BME280;3132;42.622;23.328;2024-03-22T12:45:07;92849.41;;;13.03;36.39
6198;BME280;3132;42.622;23.328;2024-03-22T12:47:33;92824.94;;;13.40;35.95
6198;BME280;3132;42.622;23.328;2024-03-22T12:49:58;92845.25;;;13.48;37.28
6198;BME280;3132;42.622;23.328;2024-03-22T12:52:23;92848.31;;;13.23;35.85
6198;BME280;3132;42.622;23.328;2024-03-22T12:54:49;92846.91;;;13.71;35.47
6198;BME280;3132;42.622;23.328;2024-03-22T12:57:14;92830.47;;;13.65;35.31
6198;BME280;3132;42.622;23.328;2024-03-22T12:59:39;92832.41;;;13.87;34.10
6198;BME280;3132;42.622;23.328;2024-03-22T13:02:05;92837.16;;;13.58;34.22
6198;BME280;3132;42.622;23.328;2024-03-22T13:04:31;92832.31;;;13.51;34.98
6198;BME280;3132;42.622;23.328;2024-03-22T13:06:56;92835.41;;;13.53;35.39
6198;BME280;3132;42.622;23.328;2024-03-22T13:09:22;92812.97;;;13.47;35.14
6198;BME280;3132;42.622;23.328;2024-03-22T13:11:48;92806.19;;;13.46;34.96